Time;durP1;ratioP1;P1;durP2;ratioP2;P2;SDS_P1;SDS_P2;PMS_P1;PMS_P2;Temp;Humidity;BMP_temperature;BMP_pressure;BME280_temperature;BME280_humidity;BME280_pressure;Samples;Min_cycle;Max_cycle;Signal;HPM_P1;HPM_P2
2023/01/07 00:00:14;;;;;;;0.80;0.80;;;11.40;99.90;;;;;;5093280;28;20225;-63
2023/01/07 00:02:40;;;;;;;0.70;0.70;;;11.30;99.90;;;;;;5085905;28;20720;-63
2023/01/07 00:05:09;;;;;;;0.67;0.67;;;11.30;99.90;;;;;;5088931;28;20301;-62
2023/01/07 00:07:36;;;;;;;0.80;0.80;;;11.30;99.90;;;;;;5088239;28;20219;-63
2023/01/07 00:10:03;;;;;;;0.80;0.80;;;11.30;99.90;;;;;;5084065;28;20200;-64
2023/01/07 00:12:30;;;;;;;0.70;0.70;;;11.30;99.90;;;;;;5091588;28;20222;-63
2023/01/07 00:14:57;;;;;;;0.67;0.67;;;11.30;99.90;;;;;;5080145;28;20282;-63
2023/01/07 00:17:24;;;;;;;0.47;0.47;;;11.20;99.90;;;;;;5091662;28;20650;-63
2023/01/07 00:19:51;;;;;;;0.77;0.77;;;11.20;99.90;;;;;;5088023;28;20267;-63
2023/01/07 00:22:19;;;;;;;0.70;0.70;;;11.20;99.90;;;;;;5097843;28;20309;-63
2023/01/07 00:24:46;;;;;;;0.63;0.63;;;11.20;99.90;;;;;;5087233;28;20250;-63
2023/01/07 00:27:13;;;;;;;0.73;0.73;;;11.20;99.90;;;;;;5072555;28;20740;-62
2023/01/07 00:29:40;;;;;;;0.70;0.70;;;11.20;99.90;;;;;;5076875;28;20547;-62
2023/01/07 00:32:07;;;;;;;0.70;0.70;;;11.20;99.90;;;;;;5081745;28;20223;-64
2023/01/07 00:34:34;;;;;;;0.97;0.83;;;11.20;99.90;;;;;;5081261;28;20245;-63
2023/01/07 00:39:43;;;;;;;0.70;0.70;;;11.10;99.90;;;;;;5067502;28;20274;-62
2023/01/07 00:44:54;;;;;;;1.07;0.90;;;11.10;99.90;;;;;;5081795;28;20210;-64
2023/01/07 00:47:21;;;;;;;0.73;0.73;;;11.10;99.90;;;;;;5076770;28;20574;-63
2023/01/07 00:49:48;;;;;;;0.70;0.70;;;11.20;99.90;;;;;;5084722;28;20279;-61
2023/01/07 00:52:15;;;;;;;0.80;0.80;;;11.30;99.90;;;;;;5084247;28;20802;-64
2023/01/07 00:54:43;;;;;;;0.73;0.73;;;11.20;99.90;;;;;;5081789;28;20203;-63
2023/01/07 00:57:12;;;;;;;0.83;0.83;;;11.20;99.90;;;;;;5081000;28;20203;-63
2023/01/07 00:59:39;;;;;;;0.80;0.80;;;11.20;99.90;;;;;;5075459;28;20281;-65
2023/01/07 01:02:07;;;;;;;0.80;0.80;;;11.20;99.90;;;;;;5083546;28;20309;-63
2023/01/07 01:04:33;;;;;;;0.70;0.70;;;11.20;99.90;;;;;;5071450;28;20295;-62
2023/01/07 01:07:00;;;;;;;0.80;0.80;;;11.20;99.90;;;;;;5083529;28;20218;-64
2023/01/07 01:09:27;;;;;;;0.83;0.83;;;11.20;99.90;;;;;;5080192;28;20321;-62
2023/01/07 01:11:56;;;;;;;0.80;0.80;;;11.20;99.90;;;;;;5077198;28;20229;-63
2023/01/07 01:14:23;;;;;;;0.83;0.83;;;11.20;99.90;;;;;;5074031;28;20281;-62
2023/01/07 01:16:50;;;;;;;0.73;0.73;;;11.10;99.90;;;;;;5084783;28;20186;-62
2023/01/07 01:19:16;;;;;;;0.70;0.70;;;11.10;99.90;;;;;;5087678;28;20209;-63
2023/01/07 01:21:43;;;;;;;1.63;1.10;;;11.00;99.90;;;;;;5090313;28;20289;-64
2023/01/07 01:24:10;;;;;;;0.60;0.60;;;11.00;99.90;;;;;;5086490;28;20207;-63
2023/01/07 01:26:37;;;;;;;0.70;0.70;;;11.00;99.90;;;;;;5085317;28;20696;-62
2023/01/07 01:29:06;;;;;;;0.70;0.70;;;11.00;99.90;;;;;;5080751;28;20226;-62
2023/01/07 01:31:33;;;;;;;0.90;0.90;;;11.00;99.90;;;;;;5076482;28;20227;-62
2023/01/07 01:34:00;;;;;;;0.70;0.70;;;11.00;99.90;;;;;;5082580;28;20219;-63
2023/01/07 01:36:27;;;;;;;0.70;0.70;;;11.10;99.90;;;;;;5085903;28;20654;-64
2023/01/07 01:38:54;;;;;;;0.70;0.70;;;11.00;99.90;;;;;;5084273;28;20203;-64
2023/01/07 01:41:21;;;;;;;0.60;0.60;;;11.00;99.90;;;;;;5085046;28;20203;-63
2023/01/07 01:43:47;;;;;;;0.70;0.70;;;11.00;99.90;;;;;;5086704;28;20237;-62
2023/01/07 01:46:19;;;;;;;0.60;0.60;;;11.00;99.90;;;;;;5076242;28;20238;-63
2023/01/07 01:48:50;;;;;;;0.67;0.67;;;11.00;99.90;;;;;;5093412;28;20203;-63
2023/01/07 01:51:21;;;;;;;0.60;0.60;;;10.90;99.90;;;;;;5081284;28;20565;-64
2023/01/07 01:53:49;;;;;;;0.70;0.70;;;10.90;99.90;;;;;;5072498;28;20215;-63
2023/01/07 01:56:19;;;;;;;0.70;0.70;;;10.90;99.90;;;;;;5081292;28;20199;-63
2023/01/07 01:58:53;;;;;;;0.70;0.70;;;10.90;99.90;;;;;;5085231;28;20558;-63
2023/01/07 02:01:21;;;;;;;1.27;1.00;;;10.90;99.90;;;;;;5087813;28;20265;-62
2023/01/07 02:03:49;;;;;;;0.60;0.60;;;11.00;99.90;;;;;;5084219;28;20228;-64
2023/01/07 02:06:20;;;;;;;0.67;0.67;;;11.00;99.90;;;;;;5083724;28;20242;-64
2023/01/07 02:08:47;;;;;;;0.60;0.60;;;11.00;99.90;;;;;;5084752;28;20666;-63
2023/01/07 02:11:24;;;;;;;0.50;0.50;;;11.10;99.90;;;;;;5082541;28;20282;-64
2023/01/07 02:14:08;;;;;;;0.50;0.50;;;11.00;99.90;;;;;;5084001;28;20233;-64
2023/01/07 02:16:43;;;;;;;0.70;0.70;;;11.10;99.90;;;;;;5079272;28;20199;-64
2023/01/07 02:19:42;;;;;;;0.70;0.70;;;11.10;99.90;;;;;;5084766;28;20194;-63
2023/01/07 02:22:19;;;;;;;0.60;0.60;;;11.10;99.90;;;;;;5087620;28;20313;-64
2023/01/07 02:25:15;;;;;;;0.60;0.60;;;11.10;99.90;;;;;;5079318;28;20697;-63
2023/01/07 02:28:01;;;;;;;0.50;0.50;;;11.10;99.90;;;;;;5077694;28;20574;-63
2023/01/07 02:31:00;;;;;;;0.50;0.50;;;11.10;99.90;;;;;;5092264;28;20199;-62
2023/01/07 02:33:38;;;;;;;0.60;0.60;;;11.20;99.90;;;;;;5081395;28;20233;-63
2023/01/07 02:36:22;;;;;;;0.60;0.60;;;11.20;99.90;;;;;;5082060;28;20203;-62
2023/01/07 02:39:03;;;;;;;0.47;0.47;;;11.20;99.90;;;;;;5075929;28;20196;-63
2023/01/07 02:41:42;;;;;;;0.40;0.40;;;11.20;99.90;;;;;;5085145;28;20245;-63
2023/01/07 02:44:16;;;;;;;0.60;0.60;;;11.10;99.90;;;;;;5083032;28;20203;-62
2023/01/07 02:46:51;;;;;;;0.40;0.40;;;11.10;99.90;;;;;;5084787;28;20666;-63
2023/01/07 02:49:19;;;;;;;0.67;0.67;;;11.10;99.90;;;;;;5084582;28;20220;-63
2023/01/07 02:51:46;;;;;;;0.50;0.50;;;11.10;99.90;;;;;;5084550;28;20202;-62
2023/01/07 02:54:17;;;;;;;0.57;0.57;;;11.20;99.90;;;;;;5082122;28;20200;-63
2023/01/07 02:57:12;;;;;;;0.90;0.90;;;11.20;99.90;;;;;;5080369;28;20267;-64
2023/01/07 03:00:06;;;;;;;0.70;0.70;;;11.20;99.90;;;;;;5075769;28;20199;-64
2023/01/07 03:02:49;;;;;;;0.63;0.63;;;11.10;99.90;;;;;;5076656;28;20694;-62
2023/01/07 03:05:41;;;;;;;0.60;0.60;;;11.10;99.90;;;;;;5080512;28;20547;-62
2023/01/07 03:08:23;;;;;;;0.57;0.57;;;11.10;99.90;;;;;;5072660;28;20591;-63
2023/01/07 03:10:57;;;;;;;0.50;0.50;;;11.00;99.90;;;;;;5081155;28;20233;-63
2023/01/07 03:13:30;;;;;;;0.60;0.60;;;11.00;99.90;;;;;;5082946;28;20258;-63
2023/01/07 03:16:02;;;;;;;0.43;0.43;;;11.00;99.90;;;;;;5084108;28;20199;-63
2023/01/07 03:18:32;;;;;;;0.47;0.47;;;10.90;99.90;;;;;;5084573;28;20191;-63
2023/01/07 03:21:04;;;;;;;0.60;0.60;;;10.90;99.90;;;;;;5087369;28;20286;-63
2023/01/07 03:23:32;;;;;;;0.60;0.60;;;11.00;99.90;;;;;;5075318;28;20357;-63
2023/01/07 03:26:03;;;;;;;0.50;0.50;;;11.00;99.90;;;;;;5080988;28;20278;-63
2023/01/07 03:28:34;;;;;;;0.50;0.50;;;11.00;99.90;;;;;;5086264;28;20590;-63
2023/01/07 03:31:02;;;;;;;0.50;0.50;;;11.00;99.90;;;;;;5081478;28;20203;-63
2023/01/07 03:33:35;;;;;;;0.60;0.60;;;11.10;99.90;;;;;;5079702;28;20583;-62
2023/01/07 03:36:05;;;;;;;0.53;0.53;;;11.10;99.90;;;;;;5076595;28;20570;-63
2023/01/07 03:38:34;;;;;;;0.50;0.50;;;11.00;99.90;;;;;;5073577;28;20274;-63
2023/01/07 03:41:02;;;;;;;0.47;0.47;;;11.10;99.90;;;;;;5079767;28;20203;-63
2023/01/07 03:43:28;;;;;;;0.50;0.50;;;11.10;99.90;;;;;;5079955;28;20219;-62
2023/01/07 03:45:56;;;;;;;0.50;0.50;;;11.10;99.90;;;;;;5084554;28;20203;-64
2023/01/07 03:48:23;;;;;;;0.50;0.50;;;11.10;99.90;;;;;;5082757;28;20260;-64
2023/01/07 03:50:50;;;;;;;0.40;0.40;;;11.10;99.90;;;;;;5085054;28;20203;-63
2023/01/07 03:53:18;;;;;;;0.50;0.50;;;11.10;99.90;;;;;;5081560;28;20223;-63
2023/01/07 03:55:45;;;;;;;0.47;0.47;;;11.10;99.90;;;;;;5087613;28;20204;-62
2023/01/07 03:58:11;;;;;;;0.80;0.80;;;11.10;99.90;;;;;;5080685;28;20210;-63
2023/01/07 04:00:38;;;;;;;0.40;0.40;;;11.10;99.90;;;;;;5078317;28;20199;-62
2023/01/07 04:03:05;;;;;;;0.67;0.67;;;11.10;99.90;;;;;;5081863;28;20231;-64
2023/01/07 04:05:32;;;;;;;1.00;1.00;;;11.10;99.90;;;;;;5069060;28;20304;-63
2023/01/07 04:07:59;;;;;;;1.00;0.90;;;11.10;99.90;;;;;;5079938;28;20225;-63
2023/01/07 04:10:27;;;;;;;0.70;0.70;;;11.10;99.90;;;;;;5076791;28;20297;-63
2023/01/07 04:12:54;;;;;;;0.80;0.80;;;11.00;99.90;;;;;;5084449;28;20215;-62
2023/01/07 04:15:21;;;;;;;0.60;0.60;;;11.00;99.90;;;;;;5086568;28;20207;-62
2023/01/07 04:17:47;;;;;;;0.67;0.67;;;11.00;99.90;;;;;;5083561;28;20548;-62
2023/01/07 04:20:14;;;;;;;0.60;0.60;;;11.00;99.90;;;;;;5083060;28;20880;-64
2023/01/07 04:22:41;;;;;;;0.40;0.40;;;11.00;99.90;;;;;;5077050;28;20277;-63
2023/01/07 04:25:08;;;;;;;0.40;0.40;;;11.00;99.90;;;;;;5074222;28;20307;-62
2023/01/07 04:27:36;;;;;;;0.50;0.50;;;11.00;99.90;;;;;;5080110;28;20231;-64
2023/01/07 04:30:04;;;;;;;0.50;0.50;;;10.90;99.90;;;;;;5078393;28;20207;-63
2023/01/07 04:32:30;;;;;;;0.70;0.70;;;10.90;99.90;;;;;;5093020;28;20257;-63
2023/01/07 04:34:57;;;;;;;0.50;0.50;;;10.90;99.90;;;;;;5086490;28;20199;-62
2023/01/07 04:37:24;;;;;;;0.47;0.47;;;10.90;99.90;;;;;;5080526;28;20200;-63
2023/01/07 04:39:51;;;;;;;0.73;0.73;;;10.80;99.90;;;;;;5080427;28;20323;-63
2023/01/07 04:42:18;;;;;;;0.40;0.40;;;10.80;99.90;;;;;;5080579;28;20606;-62
2023/01/07 04:44:46;;;;;;;0.57;0.57;;;10.80;99.90;;;;;;5082851;28;20573;-64
2023/01/07 04:47:13;;;;;;;0.53;0.53;;;10.80;99.90;;;;;;5081876;28;20307;-62
2023/01/07 04:49:40;;;;;;;0.70;0.70;;;10.80;99.90;;;;;;5083038;28;20202;-64
2023/01/07 04:52:07;;;;;;;1.27;0.60;;;10.80;99.90;;;;;;5079790;28;20219;-62
2023/01/07 04:54:35;;;;;;;0.57;0.57;;;10.80;99.90;;;;;;5082130;28;20289;-62
2023/01/07 04:57:01;;;;;;;0.60;0.60;;;10.80;99.90;;;;;;5083443;28;20199;-64
2023/01/07 04:59:28;;;;;;;0.50;0.50;;;10.80;99.90;;;;;;5076925;28;20203;-64
2023/01/07 05:01:56;;;;;;;0.60;0.60;;;10.80;99.90;;;;;;5081472;28;20206;-64
2023/01/07 05:04:23;;;;;;;0.57;0.57;;;10.80;99.90;;;;;;5073359;28;20214;-61
2023/01/07 05:06:50;;;;;;;0.40;0.40;;;10.90;99.90;;;;;;5083086;28;20214;-63
2023/01/07 05:09:17;;;;;;;0.60;0.60;;;10.90;99.90;;;;;;5084023;28;20720;-63
2023/01/07 05:11:43;;;;;;;0.50;0.50;;;10.90;99.90;;;;;;5079535;28;20199;-63
2023/01/07 05:14:11;;;;;;;0.47;0.47;;;10.80;99.90;;;;;;5082740;28;20488;-62
2023/01/07 05:16:38;;;;;;;0.40;0.40;;;10.90;99.90;;;;;;5073431;28;20207;-61
2023/01/07 05:19:06;;;;;;;0.40;0.40;;;10.80;99.90;;;;;;5090768;28;20203;-62
2023/01/07 05:21:33;;;;;;;0.93;0.43;;;10.80;99.90;;;;;;5076779;28;20210;-63
2023/01/07 05:24:00;;;;;;;0.47;0.47;;;10.90;99.90;;;;;;5079529;28;20239;-63
2023/01/07 05:26:27;;;;;;;0.50;0.50;;;10.80;99.90;;;;;;5085504;28;20287;-63
2023/01/07 05:28:54;;;;;;;0.40;0.40;;;10.90;99.90;;;;;;5080729;28;20219;-62
2023/01/07 05:31:21;;;;;;;0.50;0.50;;;10.90;99.90;;;;;;5086419;28;20210;-62
2023/01/07 05:33:48;;;;;;;0.57;0.57;;;10.90;99.90;;;;;;5078596;28;20250;-61
2023/01/07 05:36:16;;;;;;;0.43;0.43;;;11.00;99.90;;;;;;5078892;28;20700;-64
2023/01/07 05:38:43;;;;;;;0.50;0.50;;;11.00;99.90;;;;;;5062530;28;20294;-62
2023/01/07 05:41:09;;;;;;;0.50;0.50;;;11.00;99.90;;;;;;5081345;28;20286;-63
2023/01/07 05:43:36;;;;;;;0.70;0.70;;;11.00;99.90;;;;;;5083931;28;20223;-65
2023/01/07 05:46:03;;;;;;;0.40;0.40;;;11.00;99.90;;;;;;5079401;28;20287;-64
2023/01/07 05:48:30;;;;;;;0.53;0.53;;;11.00;99.90;;;;;;5074382;28;20222;-64
2023/01/07 05:50:57;;;;;;;0.43;0.43;;;11.00;99.90;;;;;;5079561;28;20195;-62
2023/01/07 05:53:25;;;;;;;0.50;0.50;;;11.00;99.90;;;;;;5085968;28;20226;-63
2023/01/07 05:55:56;;;;;;;0.50;0.50;;;11.00;99.90;;;;;;5079287;28;20209;-64
2023/01/07 05:58:23;;;;;;;0.50;0.50;;;11.00;99.90;;;;;;5065603;28;20208;-64
2023/01/07 06:00:50;;;;;;;0.40;0.40;;;11.00;99.90;;;;;;5077579;28;20282;-64
2023/01/07 06:03:17;;;;;;;0.50;0.50;;;11.00;99.90;;;;;;5080574;28;20229;-65
2023/01/07 06:05:44;;;;;;;0.50;0.50;;;11.00;99.90;;;;;;5084216;28;20199;-62
2023/01/07 06:08:10;;;;;;;0.60;0.60;;;11.00;99.90;;;;;;5083233;28;20610;-64
2023/01/07 06:10:39;;;;;;;0.40;0.40;;;10.90;99.90;;;;;;5089194;28;20724;-63
2023/01/07 06:13:06;;;;;;;0.60;0.60;;;11.00;99.90;;;;;;5082054;28;20226;-62
2023/01/07 06:15:33;;;;;;;0.32;0.32;;;10.90;99.90;;;;;;5086395;28;20199;-63
2023/01/07 06:18:00;;;;;;;0.60;0.60;;;11.00;99.90;;;;;;5086301;28;20673;-64
2023/01/07 06:20:28;;;;;;;0.50;0.50;;;11.00;99.90;;;;;;5086482;28;20204;-64
2023/01/07 06:22:55;;;;;;;0.60;0.60;;;11.00;99.90;;;;;;5088494;28;20309;-62
2023/01/07 06:25:22;;;;;;;0.83;0.83;;;11.00;99.90;;;;;;5083992;28;20227;-63
2023/01/07 06:27:50;;;;;;;0.40;0.40;;;10.90;99.90;;;;;;5086510;28;20218;-63
2023/01/07 06:30:17;;;;;;;0.50;0.50;;;10.90;99.90;;;;;;5086080;28;20203;-64
2023/01/07 06:32:45;;;;;;;0.60;0.60;;;10.90;99.90;;;;;;5096897;28;20257;-62
2023/01/07 06:35:12;;;;;;;0.40;0.40;;;10.90;99.90;;;;;;5090863;28;20619;-65
2023/01/07 06:37:39;;;;;;;0.60;0.60;;;10.90;99.90;;;;;;5105420;28;20203;-64
2023/01/07 06:40:08;;;;;;;0.40;0.40;;;10.90;99.90;;;;;;5101838;28;20213;-64
2023/01/07 06:42:35;;;;;;;0.50;0.50;;;10.90;99.90;;;;;;5098961;28;20214;-63
2023/01/07 06:45:03;;;;;;;0.50;0.50;;;10.90;99.90;;;;;;5100757;28;20202;-64
2023/01/07 06:47:30;;;;;;;0.50;0.50;;;10.90;99.90;;;;;;5095700;28;20209;-64
2023/01/07 06:49:57;;;;;;;0.40;0.40;;;10.90;99.90;;;;;;5090132;28;20222;-64
2023/01/07 06:52:24;;;;;;;0.40;0.40;;;11.00;99.90;;;;;;5088101;28;20223;-62
2023/01/07 06:54:51;;;;;;;0.40;0.40;;;11.00;99.90;;;;;;5086383;28;20205;-63
2023/01/07 06:57:17;;;;;;;0.57;0.57;;;11.00;99.90;;;;;;5082656;28;20209;-64
2023/01/07 06:59:44;;;;;;;0.50;0.50;;;11.00;99.90;;;;;;5084253;28;20220;-63
2023/01/07 07:02:18;;;;;;;0.60;0.60;;;11.00;99.90;;;;;;5085614;28;20223;-63
2023/01/07 07:04:45;;;;;;;0.60;0.60;;;11.00;99.90;;;;;;5077630;28;20203;-62
2023/01/07 07:07:12;;;;;;;0.53;0.53;;;10.90;99.90;;;;;;5084489;28;20198;-64
2023/01/07 07:09:39;;;;;;;0.50;0.50;;;11.00;99.90;;;;;;5084435;28;20219;-62
2023/01/07 07:12:06;;;;;;;0.60;0.60;;;11.00;99.90;;;;;;5084671;28;20312;-66
2023/01/07 07:14:33;;;;;;;0.70;0.70;;;11.00;99.90;;;;;;5079912;28;20214;-63
2023/01/07 07:17:00;;;;;;;0.70;0.70;;;10.90;99.90;;;;;;5080817;28;20290;-64
2023/01/07 07:19:28;;;;;;;0.63;0.63;;;10.90;99.90;;;;;;5089191;28;20604;-63
2023/01/07 07:21:55;;;;;;;0.50;0.50;;;10.90;99.90;;;;;;5080707;28;20663;-62
2023/01/07 07:24:22;;;;;;;0.60;0.60;;;10.90;99.90;;;;;;5082933;28;20217;-62
2023/01/07 07:26:50;;;;;;;0.70;0.70;;;10.90;99.90;;;;;;5088366;28;20205;-62
2023/01/07 07:29:16;;;;;;;0.90;0.90;;;10.90;99.90;;;;;;5075450;28;20219;-63
2023/01/07 07:31:43;;;;;;;0.90;0.90;;;10.90;99.90;;;;;;5086026;28;20241;-63
2023/01/07 07:34:10;;;;;;;0.70;0.70;;;10.90;99.90;;;;;;5081305;28;20195;-62
2023/01/07 07:36:39;;;;;;;0.60;0.60;;;10.90;99.90;;;;;;5087607;28;20195;-62
2023/01/07 07:39:06;;;;;;;0.37;0.37;;;10.90;99.90;;;;;;5081123;28;20680;-64
2023/01/07 07:41:33;;;;;;;0.47;0.47;;;10.90;99.90;;;;;;5068052;28;20247;-63
2023/01/07 07:44:00;;;;;;;0.50;0.50;;;10.90;99.90;;;;;;5081700;28;20690;-64
2023/01/07 07:46:27;;;;;;;0.50;0.50;;;10.90;99.90;;;;;;5080285;28;20207;-64
2023/01/07 07:48:54;;;;;;;0.70;0.70;;;10.90;99.90;;;;;;5080646;28;20219;-63
2023/01/07 07:51:21;;;;;;;0.80;0.80;;;10.90;99.90;;;;;;5082640;28;20203;-62
2023/01/07 07:53:49;;;;;;;0.53;0.53;;;10.90;99.90;;;;;;5084893;28;20215;-63
2023/01/07 07:56:16;;;;;;;0.63;0.63;;;10.90;99.90;;;;;;5081692;28;20292;-62
2023/01/07 07:58:43;;;;;;;0.60;0.60;;;10.80;99.90;;;;;;5083571;28;20237;-63
2023/01/07 08:01:10;;;;;;;0.50;0.50;;;10.80;99.90;;;;;;5081527;28;20269;-63
2023/01/07 08:03:36;;;;;;;0.50;0.50;;;10.80;99.90;;;;;;5083384;28;20268;-63
2023/01/07 08:06:04;;;;;;;0.50;0.50;;;10.80;99.90;;;;;;5082464;28;20207;-62
2023/01/07 08:08:30;;;;;;;0.50;0.50;;;10.90;99.90;;;;;;5078279;28;20721;-64
2023/01/07 08:10:59;;;;;;;0.67;0.67;;;10.90;99.90;;;;;;5084828;28;20298;-63
2023/01/07 08:13:26;;;;;;;0.60;0.60;;;10.90;99.90;;;;;;5082012;28;20321;-63
2023/01/07 08:15:53;;;;;;;0.60;0.60;;;10.90;99.90;;;;;;5084491;28;20203;-64
2023/01/07 08:18:19;;;;;;;0.70;0.70;;;10.80;99.90;;;;;;5083170;28;20244;-64
2023/01/07 08:20:47;;;;;;;0.80;0.80;;;10.80;99.90;;;;;;5083637;28;20203;-64
2023/01/07 08:23:13;;;;;;;0.70;0.70;;;10.90;99.90;;;;;;5081017;28;20230;-62
2023/01/07 08:25:40;;;;;;;0.90;0.90;;;10.90;99.90;;;;;;5082720;28;20191;-63
2023/01/07 08:28:10;;;;;;;0.60;0.60;;;11.10;99.90;;;;;;5080015;28;20203;-64
2023/01/07 08:30:37;;;;;;;0.60;0.60;;;10.90;99.90;;;;;;5080976;28;20199;-63
2023/01/07 08:33:05;;;;;;;0.50;0.50;;;10.90;99.90;;;;;;5083074;28;20219;-63
2023/01/07 08:35:32;;;;;;;0.50;0.50;;;10.90;99.90;;;;;;5078704;28;20195;-63
2023/01/07 08:38:03;;;;;;;0.43;0.43;;;10.90;99.90;;;;;;5083087;28;20202;-62
2023/01/07 08:40:30;;;;;;;0.57;0.57;;;10.90;99.90;;;;;;5080474;28;20227;-63
2023/01/07 08:42:59;;;;;;;0.63;0.63;;;10.90;99.90;;;;;;5088254;28;20550;-62
2023/01/07 08:45:27;;;;;;;0.80;0.80;;;10.90;99.90;;;;;;5090335;28;20218;-64
2023/01/07 08:47:56;;;;;;;0.67;0.67;;;11.00;99.90;;;;;;5078145;28;20591;-63
2023/01/07 08:50:23;;;;;;;0.90;0.90;;;11.00;99.90;;;;;;5083470;28;20600;-63
2023/01/07 08:52:50;;;;;;;0.60;0.60;;;11.10;99.90;;;;;;5083805;28;20229;-61
2023/01/07 08:55:18;;;;;;;0.60;0.60;;;11.10;99.90;;;;;;5080803;28;20263;-61
2023/01/07 08:57:46;;;;;;;0.50;0.50;;;11.10;99.90;;;;;;5081611;28;20203;-63
2023/01/07 09:00:14;;;;;;;0.70;0.70;;;11.20;99.90;;;;;;5078217;28;20199;-61
2023/01/07 09:02:42;;;;;;;0.83;0.83;;;11.20;99.90;;;;;;5080215;28;20219;-63
2023/01/07 09:05:10;;;;;;;0.80;0.80;;;11.30;99.90;;;;;;5079527;28;20207;-63
2023/01/07 09:07:37;;;;;;;0.75;0.73;;;11.30;99.90;;;;;;5082669;28;20235;-62
2023/01/07 09:10:05;;;;;;;0.40;0.40;;;11.30;99.90;;;;;;5080402;28;20223;-60
2023/01/07 09:12:32;;;;;;;0.40;0.40;;;11.30;99.90;;;;;;5073701;28;20226;-62
2023/01/07 09:14:59;;;;;;;0.50;0.50;;;11.30;99.90;;;;;;5075752;28;20564;-63
2023/01/07 09:17:26;;;;;;;0.57;0.57;;;11.40;99.90;;;;;;5080913;28;20209;-61
2023/01/07 09:19:54;;;;;;;0.60;0.60;;;11.50;99.90;;;;;;5082630;28;20290;-62
2023/01/07 09:22:22;;;;;;;0.50;0.50;;;11.50;99.90;;;;;;5080710;28;20243;-64
2023/01/07 09:24:48;;;;;;;0.50;0.50;;;11.50;99.90;;;;;;5076059;28;20211;-62
2023/01/07 09:27:16;;;;;;;0.50;0.50;;;11.50;99.90;;;;;;5080193;28;20567;-62
2023/01/07 09:29:42;;;;;;;0.70;0.70;;;11.70;99.90;;;;;;5082180;28;20229;-63
2023/01/07 09:32:09;;;;;;;0.52;0.52;;;11.70;99.90;;;;;;5076347;28;20269;-63
2023/01/07 09:34:37;;;;;;;0.60;0.60;;;11.70;99.90;;;;;;5081958;28;20281;-63
2023/01/07 09:37:05;;;;;;;0.53;0.53;;;11.80;99.90;;;;;;5081115;28;20207;-63
2023/01/07 09:39:32;;;;;;;0.40;0.40;;;11.80;99.90;;;;;;5062239;28;20194;-63
2023/01/07 09:42:05;;;;;;;0.60;0.60;;;11.80;99.90;;;;;;5079803;28;20263;-63
2023/01/07 09:44:48;;;;;;;1.00;0.50;;;11.80;99.90;;;;;;5065451;28;20303;-63
2023/01/07 09:47:18;;;;;;;0.50;0.50;;;11.90;99.90;;;;;;5077926;28;20730;-62
2023/01/07 09:49:47;;;;;;;0.53;0.53;;;11.90;99.90;;;;;;5089890;28;20226;-62
2023/01/07 09:52:22;;;;;;;0.50;0.50;;;11.90;99.90;;;;;;5085221;28;20276;-63
2023/01/07 09:54:55;;;;;;;0.60;0.60;;;11.90;99.90;;;;;;5078655;28;20198;-64
2023/01/07 09:57:21;;;;;;;0.40;0.40;;;11.90;99.90;;;;;;5087801;28;20206;-63
2023/01/07 09:59:48;;;;;;;0.70;0.70;;;12.00;99.90;;;;;;5085082;28;20230;-64
2023/01/07 10:02:25;;;;;;;0.60;0.60;;;12.10;99.90;;;;;;5083868;28;20528;-63
2023/01/07 10:05:02;;;;;;;0.60;0.60;;;12.10;99.90;;;;;;5087240;28;20194;-64
2023/01/07 10:07:37;;;;;;;0.43;0.43;;;12.20;99.90;;;;;;5076149;28;20205;-61
2023/01/07 10:10:12;;;;;;;0.70;0.70;;;12.20;99.90;;;;;;5090269;28;20280;-62
2023/01/07 10:12:44;;;;;;;0.40;0.40;;;12.20;99.90;;;;;;5076083;28;20227;-62
2023/01/07 10:15:42;;;;;;;0.40;0.40;;;12.20;99.90;;;;;;5078655;28;20201;-63
2023/01/07 10:18:31;;;;;;;0.50;0.50;;;12.20;99.90;;;;;;5072208;28;20196;-63
2023/01/07 10:21:08;;;;;;;0.70;0.67;;;12.30;99.90;;;;;;5074482;28;20207;-62
2023/01/07 10:23:41;;;;;;;0.70;0.70;;;12.40;99.90;;;;;;5073609;28;20237;-63
2023/01/07 10:26:17;;;;;;;0.50;0.50;;;12.40;99.90;;;;;;5074474;28;20270;-62
2023/01/07 10:28:48;;;;;;;0.63;0.63;;;12.50;99.90;;;;;;5076239;28;20207;-64
2023/01/07 10:31:17;;;;;;;0.60;0.60;;;12.60;99.90;;;;;;5083475;28;20203;-63
2023/01/07 10:33:46;;;;;;;0.60;0.60;;;12.80;99.90;;;;;;5077488;28;20258;-63
2023/01/07 10:36:20;;;;;;;0.60;0.60;;;13.00;99.90;;;;;;5077248;28;20199;-63
2023/01/07 10:38:57;;;;;;;0.57;0.57;;;13.30;99.90;;;;;;5082150;28;20206;-62
2023/01/07 10:41:30;;;;;;;0.40;0.40;;;13.50;99.90;;;;;;5092552;28;20213;-63
2023/01/07 10:44:16;;;;;;;0.50;0.50;;;13.80;99.90;;;;;;5082740;28;20219;-64
2023/01/07 10:46:55;;;;;;;0.60;0.60;;;14.00;99.90;;;;;;5079168;28;20415;-63
2023/01/07 10:49:36;;;;;;;0.47;0.47;;;14.20;99.90;;;;;;5076684;28;20223;-64
2023/01/07 10:52:25;;;;;;;0.77;0.77;;;14.30;99.90;;;;;;5087315;28;20304;-62
2023/01/07 10:55:19;;;;;;;0.70;0.70;;;14.40;99.90;;;;;;5080140;28;20230;-61
2023/01/07 10:57:48;;;;;;;0.40;0.40;;;14.20;99.90;;;;;;5085527;28;20217;-62
2023/01/07 11:00:17;;;;;;;0.50;0.50;;;13.90;99.90;;;;;;5082039;28;20204;-62
2023/01/07 11:02:46;;;;;;;0.57;0.57;;;13.90;99.90;;;;;;5074038;28;20281;-63
2023/01/07 11:05:13;;;;;;;0.50;0.50;;;13.80;99.90;;;;;;5073300;28;20234;-63
2023/01/07 11:07:44;;;;;;;0.50;0.50;;;13.90;99.90;;;;;;5074123;28;20231;-62
2023/01/07 11:10:18;;;;;;;0.60;0.60;;;14.00;99.90;;;;;;5075197;28;20219;-63
2023/01/07 11:12:48;;;;;;;0.75;0.75;;;14.00;99.90;;;;;;5071629;28;20649;-63
2023/01/07 11:15:19;;;;;;;0.57;0.57;;;14.20;99.90;;;;;;5074997;28;20662;-63
2023/01/07 11:17:49;;;;;;;0.40;0.40;;;14.20;99.90;;;;;;5073142;28;20603;-63
2023/01/07 11:20:42;;;;;;;0.60;0.60;;;14.30;99.90;;;;;;5074684;28;20222;-62
2023/01/07 11:23:18;;;;;;;0.70;0.70;;;14.40;99.90;;;;;;5070337;28;20320;-63
2023/01/07 11:25:47;;;;;;;0.60;0.60;;;14.40;99.90;;;;;;5072458;28;20207;-63
2023/01/07 11:28:18;;;;;;;0.60;0.60;;;14.50;99.90;;;;;;5074135;28;20627;-61
2023/01/07 11:30:55;;;;;;;0.60;0.60;;;14.70;99.90;;;;;;5078375;28;20279;-62
2023/01/07 11:33:25;;;;;;;0.50;0.50;;;14.50;99.90;;;;;;5078022;28;20588;-61
2023/01/07 11:35:54;;;;;;;0.60;0.60;;;14.50;99.90;;;;;;5073705;28;20661;-62
2023/01/07 11:38:29;;;;;;;0.53;0.53;;;14.40;99.90;;;;;;5083104;28;20212;-62
2023/01/07 11:40:58;;;;;;;0.60;0.60;;;14.50;99.90;;;;;;5074554;28;20207;-63
2023/01/07 11:43:31;;;;;;;0.70;0.70;;;14.50;99.90;;;;;;5084061;28;20226;-62
2023/01/07 11:46:01;;;;;;;0.60;0.60;;;14.50;99.90;;;;;;5059460;28;20299;-63
2023/01/07 11:48:30;;;;;;;0.73;0.73;;;14.50;99.90;;;;;;5087601;28;20548;-62
2023/01/07 11:50:59;;;;;;;0.60;0.60;;;14.60;99.90;;;;;;5080639;28;20506;-63
2023/01/07 11:53:36;;;;;;;0.53;0.53;;;14.50;99.90;;;;;;5085794;28;20249;-63
2023/01/07 11:56:07;;;;;;;0.70;0.70;;;14.50;99.90;;;;;;5078650;28;20199;-64
2023/01/07 11:58:36;;;;;;;0.63;0.63;;;14.40;99.90;;;;;;5065223;28;20210;-63
2023/01/07 12:01:16;;;;;;;0.47;0.47;;;14.40;99.90;;;;;;5080473;28;20205;-63
2023/01/07 12:03:44;;;;;;;0.60;0.60;;;14.40;99.90;;;;;;5070514;28;20499;-63
2023/01/07 12:06:18;;;;;;;0.70;0.70;;;14.40;99.90;;;;;;5085728;28;20594;-62
2023/01/07 12:08:53;;;;;;;0.70;0.70;;;14.30;99.90;;;;;;5084624;28;20720;-64
2023/01/07 12:11:22;;;;;;;0.63;0.63;;;14.30;99.90;;;;;;5086772;28;20312;-63
2023/01/07 12:13:52;;;;;;;0.60;0.60;;;14.30;99.90;;;;;;5084495;28;20308;-63
2023/01/07 12:16:27;;;;;;;0.70;0.70;;;14.30;99.90;;;;;;5081787;28;20741;-62
2023/01/07 12:19:04;;;;;;;0.60;0.60;;;14.30;99.90;;;;;;5072139;28;20199;-63
2023/01/07 12:21:35;;;;;;;0.50;0.50;;;14.30;99.90;;;;;;5078257;28;20225;-64
2023/01/07 12:24:19;;;;;;;0.43;0.43;;;14.30;99.90;;;;;;5070841;28;20233;-62
2023/01/07 12:26:55;;;;;;;0.60;0.60;;;14.40;99.90;;;;;;5082467;28;20288;-63
2023/01/07 12:29:35;;;;;;;0.70;0.70;;;14.30;99.90;;;;;;5082611;28;20264;-63
2023/01/07 12:32:19;;;;;;;0.60;0.60;;;14.40;99.90;;;;;;5081996;28;20223;-61
2023/01/07 12:34:51;;;;;;;0.50;0.50;;;14.30;99.90;;;;;;5072260;28;20194;-63
2023/01/07 12:37:32;;;;;;;0.60;0.60;;;14.30;99.90;;;;;;5082098;28;20203;-62
2023/01/07 12:40:16;;;;;;;0.60;0.60;;;14.30;99.90;;;;;;5082828;28;20588;-63
2023/01/07 12:42:50;;;;;;;2.37;0.77;;;14.30;99.90;;;;;;5074473;28;20229;-63
2023/01/07 12:45:22;;;;;;;0.67;0.67;;;14.30;99.90;;;;;;5080531;28;20202;-63
2023/01/07 12:47:54;;;;;;;0.57;0.57;;;14.30;99.90;;;;;;5078269;28;20199;-63
2023/01/07 12:50:25;;;;;;;0.57;0.57;;;14.40;99.90;;;;;;5074040;28;20227;-63
2023/01/07 12:52:58;;;;;;;0.70;0.70;;;14.40;99.90;;;;;;5090252;28;20218;-63
2023/01/07 12:55:29;;;;;;;0.67;0.67;;;14.40;99.90;;;;;;5086178;28;20210;-65
2023/01/07 12:58:13;;;;;;;0.65;0.65;;;14.50;99.90;;;;;;5078534;28;20206;-63
2023/01/07 13:00:45;;;;;;;0.47;0.47;;;14.50;99.90;;;;;;5075600;28;20222;-63
2023/01/07 13:03:24;;;;;;;0.60;0.60;;;14.50;99.90;;;;;;5078442;28;20227;-64
2023/01/07 13:05:56;;;;;;;0.70;0.70;;;14.50;99.90;;;;;;5080429;28;20199;-64
2023/01/07 13:08:34;;;;;;;0.60;0.60;;;14.50;99.90;;;;;;5084165;28;20570;-63